sensor_id;sensor_type;location;lat;lon;timestamp;temperature;humidity
26954;DHT22;14508;50.924;11.600;2023-07-20T00:02:25;15.80;99.90
26954;DHT22;14508;50.924;11.600;2023-07-20T00:04:53;15.80;99.90
26954;DHT22;14508;50.924;11.600;2023-07-20T00:07:21;15.80;99.90
26954;DHT22;14508;50.924;11.600;2023-07-20T00:09:49;15.70;99.90
26954;DHT22;14508;50.924;11.600;2023-07-20T00:12:18;15.70;99.90
26954;DHT22;14508;50.924;11.600;2023-07-20T00:14:46;15.70;99.90
26954;DHT22;14508;50.924;11.600;2023-07-20T00:17:14;15.60;99.90
26954;DHT22;14508;50.924;11.600;2023-07-20T00:19:42;15.60;99.90
26954;DHT22;14508;50.924;11.600;2023-07-20T00:22:10;15.50;99.90
26954;DHT22;14508;50.924;11.600;2023-07-20T00:24:39;15.50;99.90
26954;DHT22;14508;50.924;11.600;2023-07-20T00:27:07;15.50;99.90
26954;DHT22;14508;50.924;11.600;2023-07-20T00:29:37;15.40;99.90
26954;DHT22;14508;50.924;11.600;2023-07-20T00:32:05;15.40;99.90
26954;DHT22;14508;50.924;11.600;2023-07-20T00:34:34;15.40;99.90
26954;DHT22;14508;50.924;11.600;2023-07-20T00:37:02;15.30;99.90
26954;DHT22;14508;50.924;11.600;2023-07-20T00:39:30;15.30;99.90
26954;DHT22;14508;50.924;11.600;2023-07-20T00:41:58;15.30;99.90
26954;DHT22;14508;50.924;11.600;2023-07-20T00:44:27;15.30;99.90
26954;DHT22;14508;50.924;11.600;2023-07-20T00:46:56;15.20;99.90
26954;DHT22;14508;50.924;11.600;2023-07-20T00:49:25;15.20;99.90
26954;DHT22;14508;50.924;11.600;2023-07-20T00:51:53;15.20;99.90
26954;DHT22;14508;50.924;11.600;2023-07-20T00:54:21;15.20;99.90
26954;DHT22;14508;50.924;11.600;2023-07-20T00:56:50;15.20;99.90
26954;DHT22;14508;50.924;11.600;2023-07-20T00:59:21;15.20;99.90
26954;DHT22;14508;50.924;11.600;2023-07-20T01:01:49;15.10;99.90
26954;DHT22;14508;50.924;11.600;2023-07-20T01:04:19;15.10;99.90
26954;DHT22;14508;50.924;11.600;2023-07-20T01:06:53;15.10;99.90
26954;DHT22;14508;50.924;11.600;2023-07-20T01:09:32;15.00;99.90
26954;DHT22;14508;50.924;11.600;2023-07-20T01:12:05;15.00;99.90
26954;DHT22;14508;50.924;11.600;2023-07-20T01:14:35;15.00;99.90
26954;DHT22;14508;50.924;11.600;2023-07-20T01:17:03;15.00;99.90
26954;DHT22;14508;50.924;11.600;2023-07-20T01:19:33;14.90;99.90
26954;DHT22;14508;50.924;11.600;2023-07-20T01:22:06;14.90;99.90
26954;DHT22;14508;50.924;11.600;2023-07-20T01:25:07;14.90;99.90
26954;DHT22;14508;50.924;11.600;2023-07-20T01:30:46;14.90;99.90
26954;DHT22;14508;50.924;11.600;2023-07-20T01:33:20;14.80;99.90
26954;DHT22;14508;50.924;11.600;2023-07-20T01:35:54;14.80;99.90
26954;DHT22;14508;50.924;11.600;2023-07-20T01:38:24;14.80;99.90
26954;DHT22;14508;50.924;11.600;2023-07-20T01:40:53;14.80;99.90
26954;DHT22;14508;50.924;11.600;2023-07-20T01:43:21;14.80;99.90
26954;DHT22;14508;50.924;11.600;2023-07-20T01:45:49;14.70;99.90
26954;DHT22;14508;50.924;11.600;2023-07-20T01:48:17;14.70;99.90
26954;DHT22;14508;50.924;11.600;2023-07-20T01:50:46;14.70;99.90
26954;DHT22;14508;50.924;11.600;2023-07-20T01:53:15;14.60;99.90
26954;DHT22;14508;50.924;11.600;2023-07-20T01:55:43;14.60;99.90
26954;DHT22;14508;50.924;11.600;2023-07-20T01:58:11;14.60;99.90
26954;DHT22;14508;50.924;11.600;2023-07-20T02:00:39;14.60;99.90
26954;DHT22;14508;50.924;11.600;2023-07-20T02:03:07;14.60;99.90
26954;DHT22;14508;50.924;11.600;2023-07-20T02:05:35;14.50;99.90
26954;DHT22;14508;50.924;11.600;2023-07-20T02:08:05;14.50;99.90
26954;DHT22;14508;50.924;11.600;2023-07-20T02:10:33;14.50;99.90
26954;DHT22;14508;50.924;11.600;2023-07-20T02:13:01;14.50;99.90
26954;DHT22;14508;50.924;11.600;2023-07-20T02:15:29;14.60;99.90
26954;DHT22;14508;50.924;11.600;2023-07-20T02:17:57;14.60;99.90
26954;DHT22;14508;50.924;11.600;2023-07-20T02:20:25;14.60;99.90
26954;DHT22;14508;50.924;11.600;2023-07-20T02:22:54;14.60;99.90
26954;DHT22;14508;50.924;11.600;2023-07-20T02:25:24;14.70;99.90
26954;DHT22;14508;50.924;11.600;2023-07-20T02:27:52;14.70;99.90
26954;DHT22;14508;50.924;11.600;2023-07-20T02:30:20;14.70;99.90
26954;DHT22;14508;50.924;11.600;2023-07-20T02:32:48;14.70;99.90
26954;DHT22;14508;50.924;11.600;2023-07-20T02:35:16;14.80;99.90
26954;DHT22;14508;50.924;11.600;2023-07-20T02:37:44;14.70;99.90
26954;DHT22;14508;50.924;11.600;2023-07-20T02:40:12;14.80;99.90
26954;DHT22;14508;50.924;11.600;2023-07-20T02:42:42;14.80;99.90
26954;DHT22;14508;50.924;11.600;2023-07-20T02:45:10;14.80;99.90
26954;DHT22;14508;50.924;11.600;2023-07-20T02:47:38;14.80;99.90
26954;DHT22;14508;50.924;11.600;2023-07-20T02:50:07;14.80;99.90
26954;DHT22;14508;50.924;11.600;2023-07-20T02:52:35;14.80;99.90
26954;DHT22;14508;50.924;11.600;2023-07-20T02:55:04;14.80;99.90
26954;DHT22;14508;50.924;11.600;2023-07-20T02:57:32;14.80;99.90
26954;DHT22;14508;50.924;11.600;2023-07-20T03:00:02;14.80;99.90
26954;DHT22;14508;50.924;11.600;2023-07-20T03:02:32;14.90;99.90
26954;DHT22;14508;50.924;11.600;2023-07-20T03:05:00;14.80;99.90
26954;DHT22;14508;50.924;11.600;2023-07-20T03:07:32;14.80;99.90
26954;DHT22;14508;50.924;11.600;2023-07-20T03:10:00;14.80;99.90
26954;DHT22;14508;50.924;11.600;2023-07-20T03:12:29;14.90;99.90
26954;DHT22;14508;50.924;11.600;2023-07-20T03:14:57;14.90;99.90
26954;DHT22;14508;50.924;11.600;2023-07-20T03:17:27;14.90;99.90
26954;DHT22;14508;50.924;11.600;2023-07-20T03:19:56;14.90;99.90
26954;DHT22;14508;50.924;11.600;2023-07-20T03:22:24;14.90;99.90
26954;DHT22;14508;50.924;11.600;2023-07-20T03:24:52;14.90;99.90
26954;DHT22;14508;50.924;11.600;2023-07-20T03:27:20;14.90;99.90
26954;DHT22;14508;50.924;11.600;2023-07-20T03:29:48;14.90;99.90
26954;DHT22;14508;50.924;11.600;2023-07-20T03:32:15;14.90;99.90
26954;DHT22;14508;50.924;11.600;2023-07-20T03:34:45;15.00;99.90
26954;DHT22;14508;50.924;11.600;2023-07-20T03:37:14;15.00;99.90
26954;DHT22;14508;50.924;11.600;2023-07-20T03:39:42;15.00;99.90
26954;DHT22;14508;50.924;11.600;2023-07-20T03:42:10;15.00;99.90
26954;DHT22;14508;50.924;11.600;2023-07-20T03:44:38;15.00;99.90
26954;DHT22;14508;50.924;11.600;2023-07-20T03:47:07;15.00;99.90
26954;DHT22;14508;50.924;11.600;2023-07-20T03:49:36;15.10;99.90
26954;DHT22;14508;50.924;11.600;2023-07-20T03:52:06;15.10;99.90
26954;DHT22;14508;50.924;11.600;2023-07-20T03:54:34;15.10;99.90
26954;DHT22;14508;50.924;11.600;2023-07-20T03:57:02;15.10;99.90
26954;DHT22;14508;50.924;11.600;2023-07-20T03:59:30;15.10;99.90
26954;DHT22;14508;50.924;11.600;2023-07-20T04:01:58;15.20;99.90
26954;DHT22;14508;50.924;11.600;2023-07-20T04:04:26;15.20;99.90
26954;DHT22;14508;50.924;11.600;2023-07-20T04:06:53;15.20;99.90
26954;DHT22;14508;50.924;11.600;2023-07-20T04:09:23;15.30;99.90
26954;DHT22;14508;50.924;11.600;2023-07-20T04:11:51;15.30;99.90
26954;DHT22;14508;50.924;11.600;2023-07-20T04:14:19;15.40;99.90
26954;DHT22;14508;50.924;11.600;2023-07-20T04:16:47;15.40;99.90
26954;DHT22;14508;50.924;11.600;2023-07-20T04:19:15;15.40;99.90
26954;DHT22;14508;50.924;11.600;2023-07-20T04:21:44;15.40;99.90
26954;DHT22;14508;50.924;11.600;2023-07-20T04:24:12;15.40;99.90
26954;DHT22;14508;50.924;11.600;2023-07-20T04:26:42;15.50;99.90
26954;DHT22;14508;50.924;11.600;2023-07-20T04:29:10;15.40;99.90
26954;DHT22;14508;50.924;11.600;2023-07-20T04:31:41;15.40;99.90
26954;DHT22;14508;50.924;11.600;2023-07-20T04:34:10;15.40;99.90
26954;DHT22;14508;50.924;11.600;2023-07-20T04:36:39;15.40;99.90
26954;DHT22;14508;50.924;11.600;2023-07-20T04:39:10;15.50;99.90
26954;DHT22;14508;50.924;11.600;2023-07-20T04:41:57;15.50;99.90
26954;DHT22;14508;50.924;11.600;2023-07-20T04:44:25;15.50;99.90
26954;DHT22;14508;50.924;11.600;2023-07-20T04:46:53;15.60;99.90
26954;DHT22;14508;50.924;11.600;2023-07-20T04:49:22;15.60;99.90
26954;DHT22;14508;50.924;11.600;2023-07-20T04:51:50;15.70;99.90
26954;DHT22;14508;50.924;11.600;2023-07-20T04:54:19;15.80;99.90
26954;DHT22;14508;50.924;11.600;2023-07-20T04:56:48;15.80;99.90
26954;DHT22;14508;50.924;11.600;2023-07-20T04:59:20;15.90;99.90
26954;DHT22;14508;50.924;11.600;2023-07-20T05:01:48;15.90;99.90
26954;DHT22;14508;50.924;11.600;2023-07-20T05:04:17;15.90;99.90
26954;DHT22;14508;50.924;11.600;2023-07-20T05:06:45;15.90;99.90
26954;DHT22;14508;50.924;11.600;2023-07-20T05:09:13;15.90;99.90
26954;DHT22;14508;50.924;11.600;2023-07-20T05:11:41;15.90;99.90
26954;DHT22;14508;50.924;11.600;2023-07-20T05:14:11;16.00;99.90
26954;DHT22;14508;50.924;11.600;2023-07-20T05:16:41;16.10;99.90
26954;DHT22;14508;50.924;11.600;2023-07-20T05:19:09;16.20;99.90
26954;DHT22;14508;50.924;11.600;2023-07-20T05:21:37;16.30;99.90
26954;DHT22;14508;50.924;11.600;2023-07-20T05:24:07;16.40;99.90
26954;DHT22;14508;50.924;11.600;2023-07-20T05:26:35;16.40;99.90
26954;DHT22;14508;50.924;11.600;2023-07-20T05:29:03;16.50;99.90
26954;DHT22;14508;50.924;11.600;2023-07-20T05:31:31;16.60;99.90
26954;DHT22;14508;50.924;11.600;2023-07-20T05:34:00;16.70;99.90
26954;DHT22;14508;50.924;11.600;2023-07-20T05:36:28;16.80;99.90
26954;DHT22;14508;50.924;11.600;2023-07-20T05:38:57;17.00;99.90
26954;DHT22;14508;50.924;11.600;2023-07-20T05:41:25;17.10;99.90
26954;DHT22;14508;50.924;11.600;2023-07-20T05:43:53;17.10;99.90
26954;DHT22;14508;50.924;11.600;2023-07-20T05:46:21;17.10;99.90
26954;DHT22;14508;50.924;11.600;2023-07-20T05:48:52;17.10;99.90
26954;DHT22;14508;50.924;11.600;2023-07-20T05:51:21;17.20;99.90
26954;DHT22;14508;50.924;11.600;2023-07-20T05:53:49;17.20;99.90
26954;DHT22;14508;50.924;11.600;2023-07-20T05:56:17;17.30;99.90
26954;DHT22;14508;50.924;11.600;2023-07-20T05:58:46;17.50;99.90
26954;DHT22;14508;50.924;11.600;2023-07-20T06:01:14;17.60;99.90
26954;DHT22;14508;50.924;11.600;2023-07-20T06:03:41;17.70;99.90
26954;DHT22;14508;50.924;11.600;2023-07-20T06:06:09;17.70;99.90
26954;DHT22;14508;50.924;11.600;2023-07-20T06:08:40;17.80;99.90
26954;DHT22;14508;50.924;11.600;2023-07-20T06:11:08;17.80;99.90
26954;DHT22;14508;50.924;11.600;2023-07-20T06:13:36;17.80;99.90
26954;DHT22;14508;50.924;11.600;2023-07-20T06:16:04;17.80;99.90
26954;DHT22;14508;50.924;11.600;2023-07-20T06:18:32;17.80;99.90
26954;DHT22;14508;50.924;11.600;2023-07-20T06:21:00;17.90;99.90
26954;DHT22;14508;50.924;11.600;2023-07-20T06:23:28;18.10;99.90
26954;DHT22;14508;50.924;11.600;2023-07-20T06:25:57;18.30;99.90
26954;DHT22;14508;50.924;11.600;2023-07-20T06:28:25;18.40;99.90
26954;DHT22;14508;50.924;11.600;2023-07-20T06:30:59;18.50;99.90
26954;DHT22;14508;50.924;11.600;2023-07-20T06:33:27;18.50;99.90
26954;DHT22;14508;50.924;11.600;2023-07-20T06:35:56;18.50;99.90
26954;DHT22;14508;50.924;11.600;2023-07-20T06:38:24;18.50;99.90
26954;DHT22;14508;50.924;11.600;2023-07-20T06:40:56;18.40;99.90
26954;DHT22;14508;50.924;11.600;2023-07-20T06:43:45;18.40;99.90
26954;DHT22;14508;50.924;11.600;2023-07-20T06:46:15;18.50;99.90
26954;DHT22;14508;50.924;11.600;2023-07-20T06:48:43;18.70;99.90
26954;DHT22;14508;50.924;11.600;2023-07-20T06:51:14;18.90;99.90
26954;DHT22;14508;50.924;11.600;2023-07-20T06:53:42;19.10;99.90
26954;DHT22;14508;50.924;11.600;2023-07-20T06:56:11;19.20;99.90
26954;DHT22;14508;50.924;11.600;2023-07-20T06:58:39;19.20;99.90
26954;DHT22;14508;50.924;11.600;2023-07-20T07:01:08;19.30;99.90
26954;DHT22;14508;50.924;11.600;2023-07-20T07:03:36;19.40;99.90
26954;DHT22;14508;50.924;11.600;2023-07-20T07:06:04;19.60;99.90
26954;DHT22;14508;50.924;11.600;2023-07-20T07:08:32;19.70;99.90
26954;DHT22;14508;50.924;11.600;2023-07-20T07:11:00;19.70;99.90
26954;DHT22;14508;50.924;11.600;2023-07-20T07:13:30;19.70;99.90
26954;DHT22;14508;50.924;11.600;2023-07-20T07:15:58;19.70;99.90
26954;DHT22;14508;50.924;11.600;2023-07-20T07:18:26;19.70;99.90
26954;DHT22;14508;50.924;11.600;2023-07-20T07:20:54;19.70;99.90
26954;DHT22;14508;50.924;11.600;2023-07-20T07:23:22;19.70;99.90
26954;DHT22;14508;50.924;11.600;2023-07-20T07:25:50;19.70;99.90
26954;DHT22;14508;50.924;11.600;2023-07-20T07:28:18;19.80;99.90
26954;DHT22;14508;50.924;11.600;2023-07-20T07:30:48;19.90;99.90
26954;DHT22;14508;50.924;11.600;2023-07-20T07:33:16;19.90;99.90
26954;DHT22;14508;50.924;11.600;2023-07-20T07:35:43;19.90;99.90
26954;DHT22;14508;50.924;11.600;2023-07-20T07:38:11;19.90;99.90
26954;DHT22;14508;50.924;11.600;2023-07-20T07:40:44;20.00;99.90
26954;DHT22;14508;50.924;11.600;2023-07-20T07:43:13;19.90;99.90
26954;DHT22;14508;50.924;11.600;2023-07-20T07:45:41;19.90;99.90
26954;DHT22;14508;50.924;11.600;2023-07-20T07:48:10;20.00;99.90
26954;DHT22;14508;50.924;11.600;2023-07-20T07:50:39;20.20;99.90
26954;DHT22;14508;50.924;11.600;2023-07-20T07:53:07;20.40;99.50
26954;DHT22;14508;50.924;11.600;2023-07-20T07:55:36;20.40;98.20
26954;DHT22;14508;50.924;11.600;2023-07-20T07:58:04;20.50;98.20
26954;DHT22;14508;50.924;11.600;2023-07-20T08:00:32;20.70;97.70
26954;DHT22;14508;50.924;11.600;2023-07-20T08:03:00;20.90;96.50
26954;DHT22;14508;50.924;11.600;2023-07-20T08:05:29;21.10;95.30
26954;DHT22;14508;50.924;11.600;2023-07-20T08:07:57;21.20;92.20
26954;DHT22;14508;50.924;11.600;2023-07-20T08:10:25;21.10;91.30
26954;DHT22;14508;50.924;11.600;2023-07-20T08:12:53;21.00;90.90
26954;DHT22;14508;50.924;11.600;2023-07-20T08:15:21;20.90;91.80
26954;DHT22;14508;50.924;11.600;2023-07-20T08:17:49;20.80;92.10
26954;DHT22;14508;50.924;11.600;2023-07-20T08:20:18;20.90;92.20
26954;DHT22;14508;50.924;11.600;2023-07-20T08:22:50;21.10;91.80
26954;DHT22;14508;50.924;11.600;2023-07-20T08:25:18;21.40;90.80
26954;DHT22;14508;50.924;11.600;2023-07-20T08:27:46;21.60;89.30
26954;DHT22;14508;50.924;11.600;2023-07-20T08:30:14;21.60;82.30
26954;DHT22;14508;50.924;11.600;2023-07-20T08:32:42;21.50;81.60
26954;DHT22;14508;50.924;11.600;2023-07-20T08:35:10;21.50;79.80
26954;DHT22;14508;50.924;11.600;2023-07-20T08:37:41;21.70;79.70
26954;DHT22;14508;50.924;11.600;2023-07-20T08:40:12;21.80;78.90
26954;DHT22;14508;50.924;11.600;2023-07-20T08:42:42;21.60;77.40
26954;DHT22;14508;50.924;11.600;2023-07-20T08:45:13;21.50;78.20
26954;DHT22;14508;50.924;11.600;2023-07-20T08:47:42;21.40;78.90
26954;DHT22;14508;50.924;11.600;2023-07-20T08:50:11;21.30;78.00
26954;DHT22;14508;50.924;11.600;2023-07-20T08:52:40;21.40;77.10
26954;DHT22;14508;50.924;11.600;2023-07-20T08:55:10;21.50;75.10
26954;DHT22;14508;50.924;11.600;2023-07-20T08:57:40;21.50;75.80
26954;DHT22;14508;50.924;11.600;2023-07-20T09:00:10;21.60;76.30
26954;DHT22;14508;50.924;11.600;2023-07-20T09:02:40;21.80;74.90
26954;DHT22;14508;50.924;11.600;2023-07-20T09:05:10;21.90;73.80
26954;DHT22;14508;50.924;11.600;2023-07-20T09:07:41;21.80;69.30
26954;DHT22;14508;50.924;11.600;2023-07-20T09:10:10;21.70;68.60
26954;DHT22;14508;50.924;11.600;2023-07-20T09:12:41;21.60;68.40
26954;DHT22;14508;50.924;11.600;2023-07-20T09:15:10;21.50;67.90
26954;DHT22;14508;50.924;11.600;2023-07-20T09:17:39;21.30;67.60
26954;DHT22;14508;50.924;11.600;2023-07-20T09:20:08;21.20;71.30
26954;DHT22;14508;50.924;11.600;2023-07-20T09:22:38;20.60;99.90
26954;DHT22;14508;50.924;11.600;2023-07-20T09:25:13;19.70;99.90
26954;DHT22;14508;50.924;11.600;2023-07-20T09:27:43;19.20;99.90
26954;DHT22;14508;50.924;11.600;2023-07-20T09:30:13;18.90;99.90
26954;DHT22;14508;50.924;11.600;2023-07-20T09:32:46;18.80;99.90
26954;DHT22;14508;50.924;11.600;2023-07-20T09:35:18;18.70;99.90
26954;DHT22;14508;50.924;11.600;2023-07-20T09:37:50;18.80;99.90
26954;DHT22;14508;50.924;11.600;2023-07-20T09:40:41;19.00;99.90
26954;DHT22;14508;50.924;11.600;2023-07-20T09:43:12;19.30;99.90
26954;DHT22;14508;50.924;11.600;2023-07-20T09:45:47;19.80;99.90
26954;DHT22;14508;50.924;11.600;2023-07-20T09:48:17;20.10;99.90
26954;DHT22;14508;50.924;11.600;2023-07-20T09:50:53;20.40;99.90
26954;DHT22;14508;50.924;11.600;2023-07-20T09:53:24;20.60;99.90
26954;DHT22;14508;50.924;11.600;2023-07-20T09:55:54;20.80;99.90
26954;DHT22;14508;50.924;11.600;2023-07-20T09:58:22;20.80;99.90
26954;DHT22;14508;50.924;11.600;2023-07-20T10:00:51;20.80;99.90
26954;DHT22;14508;50.924;11.600;2023-07-20T10:03:21;20.70;99.90
26954;DHT22;14508;50.924;11.600;2023-07-20T10:05:54;20.60;96.30
26954;DHT22;14508;50.924;11.600;2023-07-20T10:08:25;20.50;94.40
26954;DHT22;14508;50.924;11.600;2023-07-20T10:10:59;20.30;95.60
26954;DHT22;14508;50.924;11.600;2023-07-20T10:13:29;20.20;96.60
26954;DHT22;14508;50.924;11.600;2023-07-20T10:16:02;20.20;97.70
26954;DHT22;14508;50.924;11.600;2023-07-20T10:18:35;20.10;98.70
26954;DHT22;14508;50.924;11.600;2023-07-20T10:21:06;20.00;98.90
26954;DHT22;14508;50.924;11.600;2023-07-20T10:23:39;20.00;99.60
26954;DHT22;14508;50.924;11.600;2023-07-20T10:26:09;19.90;99.60
26954;DHT22;14508;50.924;11.600;2023-07-20T10:28:38;19.90;99.90
26954;DHT22;14508;50.924;11.600;2023-07-20T10:31:07;19.80;99.90
26954;DHT22;14508;50.924;11.600;2023-07-20T10:33:36;19.60;99.90
26954;DHT22;14508;50.924;11.600;2023-07-20T10:36:06;19.40;99.90
26954;DHT22;14508;50.924;11.600;2023-07-20T10:38:41;19.20;99.90
26954;DHT22;14508;50.924;11.600;2023-07-20T10:41:21;18.80;99.90
26954;DHT22;14508;50.924;11.600;2023-07-20T10:43:55;18.60;99.90
26954;DHT22;14508;50.924;11.600;2023-07-20T10:46:41;18.50;99.90
26954;DHT22;14508;50.924;11.600;2023-07-20T10:49:10;18.40;99.90
26954;DHT22;14508;50.924;11.600;2023-07-20T10:51:42;18.40;99.90
26954;DHT22;14508;50.924;11.600;2023-07-20T10:54:35;18.30;99.90
26954;DHT22;14508;50.924;11.600;2023-07-20T10:57:28;18.30;99.90
26954;DHT22;14508;50.924;11.600;2023-07-20T11:00:09;18.20;99.90
26954;DHT22;14508;50.924;11.600;2023-07-20T11:02:45;18.20;99.90
26954;DHT22;14508;50.924;11.600;2023-07-20T11:05:36;18.10;99.90
26954;DHT22;14508;50.924;11.600;2023-07-20T11:08:09;18.00;99.90
26954;DHT22;14508;50.924;11.600;2023-07-20T11:10:38;18.00;99.90
26954;DHT22;14508;50.924;11.600;2023-07-20T11:13:22;18.10;99.90
26954;DHT22;14508;50.924;11.600;2023-07-20T11:16:04;18.40;99.90
26954;DHT22;14508;50.924;11.600;2023-07-20T11:18:35;18.60;99.90
26954;DHT22;14508;50.924;11.600;2023-07-20T11:21:09;18.80;99.90
26954;DHT22;14508;50.924;11.600;2023-07-20T11:23:38;18.90;99.90
26954;DHT22;14508;50.924;11.600;2023-07-20T11:26:06;19.00;99.90
26954;DHT22;14508;50.924;11.600;2023-07-20T11:28:36;19.10;99.90
26954;DHT22;14508;50.924;11.600;2023-07-20T11:31:05;19.20;99.90
26954;DHT22;14508;50.924;11.600;2023-07-20T11:33:33;19.30;99.90
26954;DHT22;14508;50.924;11.600;2023-07-20T11:36:01;19.40;99.90
26954;DHT22;14508;50.924;11.600;2023-07-20T11:38:49;19.60;99.90
26954;DHT22;14508;50.924;11.600;2023-07-20T11:41:17;19.80;99.90
26954;DHT22;14508;50.924;11.600;2023-07-20T11:43:48;19.90;99.90
26954;DHT22;14508;50.924;11.600;2023-07-20T11:46:16;20.00;99.90
26954;DHT22;14508;50.924;11.600;2023-07-20T11:48:44;20.20;99.90
26954;DHT22;14508;50.924;11.600;2023-07-20T11:51:15;20.50;99.90
26954;DHT22;14508;50.924;11.600;2023-07-20T11:53:44;20.70;99.90
26954;DHT22;14508;50.924;11.600;2023-07-20T11:56:13;20.80;96.30
26954;DHT22;14508;50.924;11.600;2023-07-20T11:58:42;20.90;93.00
26954;DHT22;14508;50.924;11.600;2023-07-20T12:01:13;20.90;91.60
26954;DHT22;14508;50.924;11.600;2023-07-20T12:03:42;21.00;91.80
26954;DHT22;14508;50.924;11.600;2023-07-20T12:06:10;21.10;91.80
26954;DHT22;14508;50.924;11.600;2023-07-20T12:08:39;21.20;91.60
26954;DHT22;14508;50.924;11.600;2023-07-20T12:11:08;21.10;92.40
26954;DHT22;14508;50.924;11.600;2023-07-20T12:13:37;21.00;93.50
26954;DHT22;14508;50.924;11.600;2023-07-20T12:16:13;20.80;94.00
26954;DHT22;14508;50.924;11.600;2023-07-20T12:18:42;20.70;95.40
26954;DHT22;14508;50.924;11.600;2023-07-20T12:21:10;20.50;94.40
26954;DHT22;14508;50.924;11.600;2023-07-20T12:23:40;20.30;94.90
26954;DHT22;14508;50.924;11.600;2023-07-20T12:26:08;20.20;95.90
26954;DHT22;14508;50.924;11.600;2023-07-20T12:28:41;20.30;97.10
26954;DHT22;14508;50.924;11.600;2023-07-20T12:31:09;20.40;97.20
26954;DHT22;14508;50.924;11.600;2023-07-20T12:33:39;20.50;96.70
26954;DHT22;14508;50.924;11.600;2023-07-20T12:36:07;20.50;94.70
26954;DHT22;14508;50.924;11.600;2023-07-20T12:38:36;20.50;95.10
26954;DHT22;14508;50.924;11.600;2023-07-20T12:41:04;20.50;95.50
26954;DHT22;14508;50.924;11.600;2023-07-20T12:43:32;20.80;94.80
26954;DHT22;14508;50.924;11.600;2023-07-20T12:46:00;20.90;94.30
26954;DHT22;14508;50.924;11.600;2023-07-20T12:48:28;21.20;93.90
26954;DHT22;14508;50.924;11.600;2023-07-20T12:50:58;21.30;91.30
26954;DHT22;14508;50.924;11.600;2023-07-20T12:53:26;21.50;89.40
26954;DHT22;14508;50.924;11.600;2023-07-20T12:55:54;21.50;82.90
26954;DHT22;14508;50.924;11.600;2023-07-20T12:58:22;21.70;78.30
26954;DHT22;14508;50.924;11.600;2023-07-20T13:00:50;21.90;72.00
26954;DHT22;14508;50.924;11.600;2023-07-20T13:03:18;22.00;69.70
26954;DHT22;14508;50.924;11.600;2023-07-20T13:05:49;22.10;69.80
26954;DHT22;14508;50.924;11.600;2023-07-20T13:08:22;22.10;67.70
26954;DHT22;14508;50.924;11.600;2023-07-20T13:10:52;22.20;67.60
26954;DHT22;14508;50.924;11.600;2023-07-20T13:13:20;22.20;65.20
26954;DHT22;14508;50.924;11.600;2023-07-20T13:15:48;22.20;63.60
26954;DHT22;14508;50.924;11.600;2023-07-20T13:18:17;22.30;63.20
26954;DHT22;14508;50.924;11.600;2023-07-20T13:20:45;22.40;63.20
26954;DHT22;14508;50.924;11.600;2023-07-20T13:23:13;22.40;60.40
26954;DHT22;14508;50.924;11.600;2023-07-20T13:25:43;22.40;60.10
26954;DHT22;14508;50.924;11.600;2023-07-20T13:28:10;22.40;59.90
26954;DHT22;14508;50.924;11.600;2023-07-20T13:30:39;22.50;60.30
26954;DHT22;14508;50.924;11.600;2023-07-20T13:33:07;22.50;58.70
26954;DHT22;14508;50.924;11.600;2023-07-20T13:35:39;22.60;58.40
26954;DHT22;14508;50.924;11.600;2023-07-20T13:38:11;22.70;57.80
26954;DHT22;14508;50.924;11.600;2023-07-20T13:40:39;22.70;57.80
26954;DHT22;14508;50.924;11.600;2023-07-20T13:43:08;22.70;56.90
26954;DHT22;14508;50.924;11.600;2023-07-20T13:45:36;22.90;56.80
26954;DHT22;14508;50.924;11.600;2023-07-20T13:48:06;23.10;55.70
26954;DHT22;14508;50.924;11.600;2023-07-20T13:50:34;23.20;55.70
26954;DHT22;14508;50.924;11.600;2023-07-20T13:53:05;23.30;55.80
26954;DHT22;14508;50.924;11.600;2023-07-20T13:55:35;23.40;56.30
26954;DHT22;14508;50.924;11.600;2023-07-20T13:58:09;23.50;55.90
26954;DHT22;14508;50.924;11.600;2023-07-20T14:00:39;23.70;56.10
26954;DHT22;14508;50.924;11.600;2023-07-20T14:03:07;24.00;56.40
26954;DHT22;14508;50.924;11.600;2023-07-20T14:05:39;24.10;54.30
26954;DHT22;14508;50.924;11.600;2023-07-20T14:08:09;24.00;54.10
26954;DHT22;14508;50.924;11.600;2023-07-20T14:10:37;23.80;54.20
26954;DHT22;14508;50.924;11.600;2023-07-20T14:13:10;23.80;54.00
26954;DHT22;14508;50.924;11.600;2023-07-20T14:15:38;23.70;53.30
26954;DHT22;14508;50.924;11.600;2023-07-20T14:18:07;23.60;53.10
26954;DHT22;14508;50.924;11.600;2023-07-20T14:20:35;23.50;53.30
26954;DHT22;14508;50.924;11.600;2023-07-20T14:23:05;23.40;54.10
26954;DHT22;14508;50.924;11.600;2023-07-20T14:25:33;23.50;54.30
26954;DHT22;14508;50.924;11.600;2023-07-20T14:28:04;23.60;54.50
26954;DHT22;14508;50.924;11.600;2023-07-20T14:30:33;23.60;54.60
26954;DHT22;14508;50.924;11.600;2023-07-20T14:33:01;23.70;54.50
26954;DHT22;14508;50.924;11.600;2023-07-20T14:35:29;23.80;54.40
26954;DHT22;14508;50.924;11.600;2023-07-20T14:37:57;23.90;53.30
26954;DHT22;14508;50.924;11.600;2023-07-20T14:40:26;24.00;53.30
26954;DHT22;14508;50.924;11.600;2023-07-20T14:42:54;23.90;52.60
26954;DHT22;14508;50.924;11.600;2023-07-20T14:45:22;23.70;53.30
26954;DHT22;14508;50.924;11.600;2023-07-20T14:47:51;23.60;53.80
26954;DHT22;14508;50.924;11.600;2023-07-20T14:50:21;23.60;53.80
26954;DHT22;14508;50.924;11.600;2023-07-20T14:52:49;23.60;54.00
26954;DHT22;14508;50.924;11.600;2023-07-20T14:55:17;23.60;53.60
26954;DHT22;14508;50.924;11.600;2023-07-20T14:57:45;23.40;53.60
26954;DHT22;14508;50.924;11.600;2023-07-20T15:00:14;23.30;53.80
26954;DHT22;14508;50.924;11.600;2023-07-20T15:02:42;23.20;53.80
26954;DHT22;14508;50.924;11.600;2023-07-20T15:05:12;23.20;54.00
26954;DHT22;14508;50.924;11.600;2023-07-20T15:07:47;23.10;54.60
26954;DHT22;14508;50.924;11.600;2023-07-20T15:10:16;23.10;54.80
26954;DHT22;14508;50.924;11.600;2023-07-20T15:12:44;23.10;55.10
26954;DHT22;14508;50.924;11.600;2023-07-20T15:15:13;23.10;55.10
26954;DHT22;14508;50.924;11.600;2023-07-20T15:17:42;23.20;55.20
26954;DHT22;14508;50.924;11.600;2023-07-20T15:20:13;23.20;54.80
26954;DHT22;14508;50.924;11.600;2023-07-20T15:22:42;23.10;54.90
26954;DHT22;14508;50.924;11.600;2023-07-20T15:25:15;23.10;55.30
26954;DHT22;14508;50.924;11.600;2023-07-20T15:27:43;23.00;55.40
26954;DHT22;14508;50.924;11.600;2023-07-20T15:30:16;23.00;55.70
26954;DHT22;14508;50.924;11.600;2023-07-20T15:32:47;23.00;55.90
26954;DHT22;14508;50.924;11.600;2023-07-20T15:35:19;23.00;55.90